Bedford, Canada
Current Conditions -  °F | °C
As of 2:00 AM on Sunday 21 Dec 2014 (Local Time) from CYHZ Reporting Station
Overcast Overcast  
Wind Chill: 22°   Ceiling: 2200
Heat Index: 28°   Visibility: 15mi
Dew Point: 27°   Wind: 6mph
Humidity: 93%   Direction: 360°N
Pressure: 30.29"   Gusts: NA
Location:  44.73°N, 63.66°W
Report Text: CYHZ 210600Z 36005KT 15SM OVC022 M02/M03 A3029 RMK SC8 SLP263
Loading
Personal Weather Stations






























Interactive Weather Map New forecast layout! Learn more

10-Day Weather Forecast

Advertisements
Track Severe Weather on mobile